createdAt,value
2022-11-29T00:01:42.876Z,22.75
2022-11-29T00:04:12.243Z,26.52
2022-11-29T00:06:41.121Z,21.15
2022-11-29T00:09:13.332Z,19.85
2022-11-29T00:12:00.611Z,23.70
2022-11-29T00:14:29.728Z,21.83
2022-11-29T00:17:03.087Z,19.38
2022-11-29T00:19:32.097Z,25.40
2022-11-29T00:22:00.872Z,25.05
2022-11-29T00:24:31.728Z,19.45
2022-11-29T00:27:00.600Z,24.13
2022-11-29T00:29:30.126Z,21.15
2022-11-29T00:32:00.164Z,25.52
2022-11-29T00:34:28.447Z,19.95
2022-11-29T00:36:56.738Z,20.77
2022-11-29T00:39:25.209Z,27.55
2022-11-29T00:41:53.458Z,27.25
2022-11-29T00:44:21.963Z,31.02
2022-11-29T00:46:50.548Z,19.73
2022-11-29T00:49:20.334Z,25.95
2022-11-29T00:51:48.724Z,21.05
2022-11-29T00:54:17.120Z,21.95
2022-11-29T00:56:45.467Z,23.50
2022-11-29T00:59:13.929Z,20.08
2022-11-29T01:01:42.268Z,23.65
2022-11-29T01:04:10.598Z,27.77
2022-11-29T01:06:40.479Z,33.00
2022-11-29T01:09:08.695Z,25.85
2022-11-29T01:11:37.298Z,24.58
2022-11-29T01:14:05.818Z,20.30
2022-11-29T01:16:34.634Z,22.25
2022-11-29T01:19:02.836Z,19.05
2022-11-29T01:21:31.867Z,17.58
2022-11-29T01:24:02.172Z,21.45
2022-11-29T01:26:31.866Z,19.35
2022-11-29T01:29:00.695Z,21.10
2022-11-29T01:31:31.624Z,21.17
2022-11-29T01:34:03.074Z,20.40
2022-11-29T01:36:31.858Z,20.75
2022-11-29T01:39:03.055Z,21.65
2022-11-29T01:41:33.864Z,23.45
2022-11-29T01:44:05.246Z,17.80
2022-11-29T01:46:35.758Z,22.55
2022-11-29T01:49:09.588Z,21.00
2022-11-29T01:51:40.198Z,23.15
2022-11-29T01:54:11.359Z,26.80
2022-11-29T01:56:40.324Z,20.17
2022-11-29T01:59:13.759Z,18.13
2022-11-29T02:01:42.487Z,20.70
2022-11-29T02:04:11.230Z,19.17
2022-11-29T02:06:41.210Z,19.65
2022-11-29T02:09:20.026Z,24.60
2022-11-29T02:12:13.909Z,22.52
2022-11-29T02:15:02.399Z,21.83
2022-11-29T02:17:38.355Z,19.58
2022-11-29T02:20:38.836Z,19.95
2022-11-29T02:23:28.534Z,36.25
2022-11-29T02:26:13.214Z,22.90
2022-11-29T02:29:12.256Z,19.02
2022-11-29T02:32:18.958Z,16.90
2022-11-29T02:35:06.318Z,20.05
2022-11-29T02:37:58.229Z,29.05
2022-11-29T02:40:50.258Z,21.48
2022-11-29T02:43:33.284Z,15.65
2022-11-29T02:46:14.017Z,18.80
2022-11-29T02:48:54.686Z,18.67
2022-11-29T02:51:31.156Z,20.77
2022-11-29T02:54:08.202Z,39.92
2022-11-29T02:56:44.419Z,19.75
2022-11-29T02:59:21.965Z,20.77
2022-11-29T03:01:59.292Z,18.88
2022-11-29T03:04:35.076Z,21.92
2022-11-29T03:07:11.654Z,22.02
2022-11-29T03:09:45.401Z,24.40
2022-11-29T03:12:23.327Z,17.88
2022-11-29T03:14:58.762Z,23.38
2022-11-29T03:17:39.068Z,20.75
2022-11-29T03:20:28.281Z,20.45
2022-11-29T03:23:15.878Z,17.23
2022-11-29T03:25:47.444Z,19.88
2022-11-29T03:28:20.631Z,21.55
2022-11-29T03:30:59.445Z,25.30
2022-11-29T03:33:38.293Z,28.50
2022-11-29T03:36:15.373Z,23.27
2022-11-29T03:38:47.045Z,18.95
2022-11-29T03:41:22.093Z,21.58
2022-11-29T03:43:58.602Z,17.95
2022-11-29T03:46:33.443Z,19.52
2022-11-29T03:49:05.484Z,20.23
2022-11-29T03:51:53.387Z,24.13
2022-11-29T03:54:26.763Z,15.30
2022-11-29T03:56:55.707Z,19.67
2022-11-29T03:59:33.569Z,22.65
2022-11-29T04:02:31.001Z,18.92
2022-11-29T04:05:21.012Z,17.63
2022-11-29T04:08:36.399Z,17.45
2022-11-29T04:11:34.214Z,16.83
2022-11-29T04:14:28.046Z,27.55
2022-11-29T04:17:39.624Z,18.15
2022-11-29T04:20:41.070Z,17.95
2022-11-29T04:23:39.106Z,23.08
2022-11-29T04:26:36.171Z,21.08
2022-11-29T04:29:26.946Z,20.40
2022-11-29T04:32:13.111Z,20.35
2022-11-29T04:35:02.914Z,18.65
2022-11-29T04:37:54.010Z,20.52
2022-11-29T04:40:43.256Z,19.27
2022-11-29T04:43:29.602Z,18.77
2022-11-29T04:46:37.956Z,24.85
2022-11-29T04:49:26.972Z,19.42
2022-11-29T04:52:18.404Z,20.30
2022-11-29T04:54:56.383Z,17.80
2022-11-29T04:57:34.333Z,19.30
2022-11-29T05:00:09.830Z,20.63
2022-11-29T05:02:46.307Z,17.98
2022-11-29T05:05:26.085Z,23.42
2022-11-29T05:08:08.872Z,17.77
2022-11-29T05:10:44.117Z,22.33
2022-11-29T05:13:22.166Z,23.08
2022-11-29T05:16:12.181Z,19.95
2022-11-29T05:19:12.976Z,26.00
2022-11-29T05:21:51.578Z,23.70
2022-11-29T05:24:32.467Z,21.63
2022-11-29T05:27:09.378Z,21.55
2022-11-29T05:29:47.601Z,24.08
2022-11-29T05:32:32.737Z,26.33
2022-11-29T05:35:30.548Z,25.45
2022-11-29T05:38:05.944Z,23.00
2022-11-29T05:40:55.890Z,19.98
2022-11-29T05:43:42.266Z,21.70
2022-11-29T05:46:21.097Z,26.35
2022-11-29T05:48:58.057Z,24.20
2022-11-29T05:51:39.690Z,23.55
2022-11-29T05:54:24.442Z,25.27
2022-11-29T05:57:06.090Z,24.33
2022-11-29T05:59:38.518Z,28.88
2022-11-29T06:02:19.106Z,26.30
2022-11-29T06:04:58.737Z,29.98
2022-11-29T06:07:33.595Z,26.00
2022-11-29T06:10:07.042Z,24.70
2022-11-29T06:12:37.532Z,26.58
2022-11-29T06:15:36.601Z,24.95
2022-11-29T06:18:26.662Z,23.42
2022-11-29T06:21:07.612Z,27.17
2022-11-29T06:23:48.587Z,27.70
2022-11-29T06:26:49.314Z,24.40
2022-11-29T06:29:26.918Z,30.38
2022-11-29T06:32:01.387Z,25.33
2022-11-29T06:34:43.461Z,28.52
2022-11-29T06:37:18.391Z,25.00
2022-11-29T06:39:47.029Z,32.20
2022-11-29T06:42:15.265Z,22.35
2022-11-29T06:44:44.229Z,26.92
2022-11-29T06:47:20.559Z,23.13
2022-11-29T06:49:54.714Z,28.00
2022-11-29T06:52:33.548Z,27.23
2022-11-29T06:55:14.435Z,29.75
2022-11-29T06:57:57.240Z,22.00
2022-11-29T07:00:28.315Z,23.88
2022-11-29T07:03:21.020Z,24.20
2022-11-29T07:05:51.729Z,27.75
2022-11-29T07:08:22.628Z,22.23
2022-11-29T07:10:53.414Z,23.27
2022-11-29T07:13:22.425Z,44.78
2022-11-29T07:16:00.697Z,34.28
2022-11-29T07:18:35.366Z,24.25
2022-11-29T07:21:14.898Z,25.50
2022-11-29T07:23:56.107Z,21.77
2022-11-29T07:26:31.403Z,34.58
2022-11-29T07:29:12.372Z,35.47
2022-11-29T07:31:50.579Z,22.58
2022-11-29T07:34:26.344Z,30.63
2022-11-29T07:37:04.662Z,22.67
2022-11-29T07:39:44.219Z,21.83
2022-11-29T07:42:20.112Z,24.90
2022-11-29T07:44:57.968Z,27.70
2022-11-29T07:47:27.515Z,25.63
2022-11-29T07:49:58.585Z,19.58
2022-11-29T07:52:29.280Z,20.17
2022-11-29T07:54:57.635Z,25.85
2022-11-29T07:57:25.947Z,17.92
2022-11-29T07:59:54.240Z,22.80
2022-11-29T08:02:29.042Z,26.05
2022-11-29T08:04:57.420Z,20.55
2022-11-29T08:07:27.448Z,21.65
2022-11-29T08:09:55.820Z,21.33
2022-11-29T08:12:24.110Z,22.00
2022-11-29T08:14:52.367Z,23.98
2022-11-29T08:17:20.575Z,23.48
2022-11-29T08:19:48.852Z,22.70
2022-11-29T08:22:17.234Z,26.70
2022-11-29T08:24:47.386Z,25.48
2022-11-29T08:27:15.997Z,20.90
2022-11-29T08:29:44.210Z,20.45
2022-11-29T08:32:12.357Z,19.98
2022-11-29T08:34:40.685Z,22.67
2022-11-29T08:37:09.388Z,24.42
2022-11-29T08:39:37.643Z,23.52
2022-11-29T08:42:07.602Z,20.02
2022-11-29T08:44:35.936Z,19.13
2022-11-29T08:47:21.622Z,20.90
2022-11-29T08:50:06.179Z,21.92
2022-11-29T08:52:54.053Z,21.35
2022-11-29T08:55:24.422Z,27.45
2022-11-29T08:57:55.385Z,18.98
2022-11-29T09:00:23.808Z,22.02
2022-11-29T09:02:52.105Z,20.15
2022-11-29T09:05:20.617Z,22.25
2022-11-29T09:07:49.068Z,21.92
2022-11-29T09:10:17.546Z,29.52
2022-11-29T09:12:46.534Z,28.00
2022-11-29T09:15:16.749Z,17.90
2022-11-29T09:17:45.144Z,18.27
2022-11-29T09:20:14.235Z,21.48
2022-11-29T09:22:42.400Z,20.13
2022-11-29T09:25:10.832Z,19.27
2022-11-29T09:27:39.015Z,21.17
2022-11-29T09:30:08.771Z,19.73
2022-11-29T09:32:38.503Z,20.23
2022-11-29T09:35:07.567Z,23.95
2022-11-29T09:37:37.106Z,17.55
2022-11-29T09:40:06.222Z,16.20
2022-11-29T09:42:47.916Z,18.00
2022-11-29T09:45:20.534Z,24.17
2022-11-29T09:48:27.670Z,15.57
2022-11-29T09:51:08.981Z,15.75
2022-11-29T09:53:56.823Z,16.30
2022-11-29T09:56:32.127Z,17.50
2022-11-29T09:59:04.940Z,17.50
2022-11-29T10:01:38.952Z,19.80
2022-11-29T10:04:13.410Z,18.05
2022-11-29T10:06:48.410Z,18.05
2022-11-29T10:09:21.882Z,18.15
2022-11-29T10:12:00.907Z,22.17
2022-11-29T10:14:35.748Z,22.75
2022-11-29T10:17:11.618Z,19.70
2022-11-29T10:19:45.134Z,21.77
2022-11-29T10:22:21.721Z,18.95
2022-11-29T10:24:53.178Z,16.58
2022-11-29T10:27:25.020Z,17.65
2022-11-29T10:29:53.959Z,17.55
2022-11-29T10:32:24.848Z,19.80
2022-11-29T10:34:53.866Z,16.67
2022-11-29T10:37:24.960Z,19.80
2022-11-29T10:39:57.320Z,17.98
2022-11-29T10:42:45.096Z,17.98
2022-11-29T10:45:30.891Z,16.58
2022-11-29T10:48:04.987Z,16.25
2022-11-29T10:50:35.829Z,18.25
2022-11-29T10:53:10.837Z,26.05
2022-11-29T10:55:45.197Z,15.98
2022-11-29T10:58:24.796Z,19.63
2022-11-29T11:00:58.687Z,14.90
2022-11-29T11:03:38.870Z,17.35
2022-11-29T11:06:12.955Z,15.45
2022-11-29T11:08:45.969Z,12.50
2022-11-29T11:11:15.322Z,16.02
2022-11-29T11:13:43.996Z,14.77
2022-11-29T11:16:18.167Z,15.98
2022-11-29T11:18:47.375Z,14.98
2022-11-29T11:21:19.191Z,15.75
2022-11-29T11:23:55.330Z,15.40
2022-11-29T11:26:24.362Z,17.92
2022-11-29T11:28:58.083Z,14.15
2022-11-29T11:31:35.584Z,12.98
2022-11-29T11:34:27.606Z,14.30
2022-11-29T11:37:12.878Z,16.90
2022-11-29T11:39:43.661Z,14.32
2022-11-29T11:42:31.237Z,17.13
2022-11-29T11:45:00.305Z,14.82
2022-11-29T11:47:31.227Z,14.35
2022-11-29T11:50:09.349Z,17.33
2022-11-29T11:52:46.244Z,13.55
2022-11-29T11:55:31.481Z,15.20
2022-11-29T11:58:09.004Z,14.25
2022-11-29T12:03:42.469Z,18.88
2022-11-29T12:06:28.541Z,14.77
2022-11-29T12:09:03.734Z,15.77
2022-11-29T12:11:42.282Z,14.40
2022-11-29T12:14:19.913Z,14.80
2022-11-29T12:16:50.268Z,14.82
2022-11-29T12:19:22.907Z,18.63
2022-11-29T12:21:54.871Z,14.68
2022-11-29T12:24:27.737Z,19.95
2022-11-29T12:27:01.924Z,16.83
2022-11-29T12:29:33.016Z,23.58
2022-11-29T12:32:15.921Z,16.10
2022-11-29T12:35:03.465Z,13.57
2022-11-29T12:37:38.198Z,17.27
2022-11-29T12:40:12.677Z,14.25
2022-11-29T12:42:52.854Z,20.38
2022-11-29T12:45:31.549Z,14.02
2022-11-29T12:48:10.836Z,12.50
2022-11-29T12:50:52.269Z,11.38
2022-11-29T12:53:39.988Z,11.98
2022-11-29T12:56:17.318Z,12.13
2022-11-29T12:59:00.140Z,12.20
2022-11-29T13:01:38.164Z,12.00
2022-11-29T13:04:17.386Z,12.27
2022-11-29T13:06:55.661Z,21.80
2022-11-29T13:09:54.586Z,13.15
2022-11-29T13:12:32.970Z,14.15
2022-11-29T13:15:07.862Z,11.75
2022-11-29T13:17:42.783Z,10.98
2022-11-29T13:20:26.729Z,11.45
2022-11-29T13:23:03.140Z,10.05
2022-11-29T13:25:36.917Z,11.07
2022-11-29T13:28:08.816Z,13.30
2022-11-29T13:30:40.534Z,16.60
2022-11-29T13:33:18.725Z,18.75
2022-11-29T13:35:55.146Z,13.57
2022-11-29T13:38:28.392Z,13.32
2022-11-29T13:41:02.729Z,13.57
2022-11-29T13:43:39.668Z,10.88
2022-11-29T13:46:20.550Z,14.35
2022-11-29T13:48:50.757Z,12.15
2022-11-29T13:51:31.692Z,12.07
2022-11-29T13:54:02.438Z,14.50
2022-11-29T13:56:43.121Z,11.63
2022-11-29T13:59:20.333Z,11.07
2022-11-29T14:01:53.594Z,17.27
2022-11-29T14:04:29.589Z,13.82
2022-11-29T14:07:06.774Z,11.70
2022-11-29T14:09:39.697Z,13.63
2022-11-29T14:12:31.255Z,13.40
2022-11-29T14:15:04.185Z,13.98
2022-11-29T14:17:46.634Z,16.58
2022-11-29T14:20:53.390Z,11.63
2022-11-29T14:23:39.067Z,15.27
2022-11-29T14:26:29.144Z,15.55
2022-11-29T14:28:58.606Z,15.43
2022-11-29T14:31:53.222Z,18.00
2022-11-29T14:34:47.479Z,12.60
2022-11-29T14:37:48.717Z,10.45
2022-11-29T14:40:29.868Z,13.77
2022-11-29T14:42:58.262Z,14.80
2022-11-29T14:45:29.076Z,16.58
2022-11-29T14:47:57.746Z,15.18
2022-11-29T14:50:36.596Z,13.77
2022-11-29T14:53:07.031Z,14.55
2022-11-29T14:55:38.368Z,19.70
2022-11-29T14:58:22.313Z,16.50
2022-11-29T15:01:09.542Z,14.70
2022-11-29T15:03:48.300Z,17.83
2022-11-29T15:06:25.137Z,15.88
2022-11-29T15:09:01.174Z,17.55
2022-11-29T15:11:41.767Z,16.73
2022-11-29T15:14:20.219Z,31.17
2022-11-29T15:17:04.475Z,17.50
2022-11-29T15:19:55.560Z,23.80
2022-11-29T15:22:28.437Z,27.05
2022-11-29T15:25:01.220Z,16.67
2022-11-29T15:27:29.697Z,20.15
2022-11-29T15:29:59.001Z,18.75
2022-11-29T15:32:31.165Z,17.42
2022-11-29T15:35:00.016Z,16.90
2022-11-29T15:37:44.668Z,17.63
2022-11-29T15:40:15.393Z,17.08
2022-11-29T15:42:49.607Z,17.08
2022-11-29T15:45:29.878Z,20.73
2022-11-29T15:48:13.651Z,18.15
2022-11-29T15:50:46.001Z,23.23
2022-11-29T15:53:20.534Z,19.77
2022-11-29T15:55:51.725Z,16.63
2022-11-29T15:58:21.854Z,17.30
2022-11-29T16:00:52.107Z,21.67
2022-11-29T16:03:25.328Z,20.48
2022-11-29T16:06:01.496Z,17.73
2022-11-29T16:08:38.381Z,18.08
2022-11-29T16:11:08.074Z,15.40
2022-11-29T16:13:39.211Z,19.63
2022-11-29T16:16:17.465Z,22.75
2022-11-29T16:18:48.039Z,21.55
2022-11-29T16:21:27.998Z,21.45
2022-11-29T16:23:58.338Z,19.95
2022-11-29T16:26:30.527Z,18.05
2022-11-29T16:28:58.862Z,22.80
2022-11-29T16:31:34.104Z,22.20
2022-11-29T16:34:09.560Z,19.75
2022-11-29T16:36:38.317Z,19.65
2022-11-29T16:39:18.436Z,17.92
2022-11-29T16:42:03.962Z,28.00
2022-11-29T16:44:55.598Z,18.65
2022-11-29T16:47:25.794Z,16.73
2022-11-29T16:50:17.509Z,19.33
2022-11-29T16:52:46.436Z,19.35
2022-11-29T16:55:16.870Z,21.80
2022-11-29T16:57:46.049Z,26.88
2022-11-29T17:00:24.969Z,21.70
2022-11-29T17:02:53.237Z,31.02
2022-11-29T17:05:21.557Z,30.83
2022-11-29T17:07:50.280Z,24.75
2022-11-29T17:10:23.657Z,25.55
2022-11-29T17:12:51.863Z,19.48
2022-11-29T17:15:20.047Z,21.83
2022-11-29T17:17:48.288Z,25.33
2022-11-29T17:20:16.667Z,23.58
2022-11-29T17:22:45.019Z,23.90
2022-11-29T17:25:13.190Z,17.90
2022-11-29T17:27:42.938Z,24.02
2022-11-29T17:30:12.582Z,20.33
2022-11-29T17:32:40.862Z,23.92
2022-11-29T17:35:09.591Z,17.85
2022-11-29T17:37:37.820Z,22.60
2022-11-29T17:40:06.867Z,21.45
2022-11-29T17:42:35.037Z,22.33
2022-11-29T17:45:08.531Z,30.00
2022-11-29T17:47:36.860Z,20.90
2022-11-29T17:50:05.784Z,18.88
2022-11-29T17:52:34.035Z,19.88
2022-11-29T17:55:02.394Z,20.20
2022-11-29T17:57:30.719Z,19.65
2022-11-29T17:59:59.121Z,20.52
2022-11-29T18:02:29.179Z,24.77
2022-11-29T18:04:57.455Z,20.15
2022-11-29T18:07:25.777Z,20.70
2022-11-29T18:09:55.242Z,18.90
2022-11-29T18:12:23.882Z,23.90
2022-11-29T18:14:52.172Z,23.65
2022-11-29T18:17:20.447Z,29.40
2022-11-29T18:19:50.662Z,25.70
2022-11-29T18:22:18.841Z,27.13
2022-11-29T18:24:47.172Z,18.75
2022-11-29T18:27:15.497Z,23.88
2022-11-29T18:29:43.887Z,23.27
2022-11-29T18:32:12.076Z,23.42
2022-11-29T18:34:40.437Z,22.75
2022-11-29T18:37:16.003Z,23.92
2022-11-29T18:39:48.797Z,21.15
2022-11-29T18:42:17.189Z,24.73
2022-11-29T18:44:45.671Z,22.05
2022-11-29T18:47:14.201Z,29.33
2022-11-29T18:49:42.521Z,24.20
2022-11-29T18:52:12.214Z,29.58
2022-11-29T18:54:40.579Z,23.67
2022-11-29T18:57:08.639Z,33.45
2022-11-29T18:59:37.046Z,24.27
2022-11-29T19:02:05.326Z,22.65
2022-11-29T19:04:33.618Z,22.85
2022-11-29T19:07:01.787Z,25.52
2022-11-29T19:09:31.591Z,21.48
2022-11-29T19:11:59.940Z,21.45
2022-11-29T19:14:28.050Z,37.08
2022-11-29T19:16:56.234Z,26.73
2022-11-29T19:19:24.503Z,22.55
2022-11-29T19:21:52.884Z,23.13
2022-11-29T19:24:21.258Z,24.88
2022-11-29T19:26:51.162Z,25.30
2022-11-29T19:29:20.423Z,21.25
2022-11-29T19:31:50.429Z,25.42
2022-11-29T19:34:18.766Z,22.63
2022-11-29T19:36:47.154Z,24.42
2022-11-29T19:39:17.342Z,23.95
2022-11-29T19:41:48.975Z,22.08
2022-11-29T19:44:18.865Z,31.95
2022-11-29T19:46:48.877Z,24.50
2022-11-29T19:49:17.741Z,28.23
2022-11-29T19:51:46.134Z,24.15
2022-11-29T19:54:14.454Z,20.58
2022-11-29T19:56:42.974Z,21.45
2022-11-29T19:59:11.893Z,19.80
2022-11-29T20:01:43.083Z,28.02
2022-11-29T20:04:13.957Z,22.35
2022-11-29T20:06:44.444Z,19.67
2022-11-29T20:09:14.921Z,25.30
2022-11-29T20:11:44.051Z,21.00
2022-11-29T20:14:14.598Z,25.88
2022-11-29T20:16:44.605Z,22.15
2022-11-29T20:19:14.724Z,25.23
2022-11-29T20:21:45.781Z,27.10
2022-11-29T20:24:15.786Z,27.13
2022-11-29T20:26:46.333Z,22.17
2022-11-29T20:29:19.269Z,25.88
2022-11-29T20:31:51.720Z,28.23
2022-11-29T20:34:31.324Z,20.88
2022-11-29T20:38:08.946Z,21.52
2022-11-29T20:45:15.764Z,25.70
2022-11-29T20:47:59.757Z,24.20
2022-11-29T20:50:30.742Z,23.38
2022-11-29T20:53:20.020Z,23.73
2022-11-29T20:56:23.732Z,28.20
2022-11-29T21:00:02.300Z,24.15
2022-11-29T21:02:39.950Z,21.13
2022-11-29T21:05:38.843Z,25.58
2022-11-29T21:08:42.042Z,27.20
2022-11-29T21:11:11.709Z,23.38
2022-11-29T21:14:34.950Z,25.73
2022-11-29T21:17:12.862Z,23.05
2022-11-29T21:19:41.984Z,26.58
2022-11-29T21:26:03.259Z,22.50
2022-11-29T21:32:42.456Z,23.40
2022-11-29T21:36:18.648Z,31.27
2022-11-29T21:39:30.219Z,27.38
2022-11-29T21:42:50.275Z,21.40
2022-11-29T21:48:38.081Z,25.08
2022-11-29T21:51:10.894Z,26.13
2022-11-29T21:53:42.333Z,25.23
2022-11-29T21:56:12.998Z,25.08
2022-11-29T21:58:41.425Z,29.13
2022-11-29T22:01:11.997Z,24.92
2022-11-29T22:03:40.815Z,25.80
2022-11-29T22:06:12.527Z,24.88
2022-11-29T22:08:42.613Z,24.15
2022-11-29T22:11:14.302Z,20.63
2022-11-29T22:13:58.369Z,28.23
2022-11-29T22:16:26.908Z,29.45
2022-11-29T22:18:55.396Z,32.30
2022-11-29T22:21:23.606Z,25.55
2022-11-29T22:23:53.431Z,33.80
2022-11-29T22:26:23.093Z,22.95
2022-11-29T22:28:51.505Z,29.42
2022-11-29T22:31:19.715Z,26.45
2022-11-29T22:33:48.078Z,27.58
2022-11-29T22:36:16.350Z,29.38
2022-11-29T22:38:44.510Z,31.33
2022-11-29T22:41:14.550Z,31.23
2022-11-29T22:43:44.641Z,37.28
2022-11-29T22:46:15.398Z,29.50
2022-11-29T22:48:45.117Z,32.13
2022-11-29T22:51:15.432Z,32.72
2022-11-29T22:53:45.193Z,41.42
2022-11-29T22:56:14.682Z,26.15
2022-11-29T22:58:44.311Z,27.85
2022-11-29T23:01:14.735Z,28.08
2022-11-29T23:03:44.706Z,31.58
2022-11-29T23:06:14.474Z,32.75
2022-11-29T23:08:44.458Z,25.70
2022-11-29T23:11:15.157Z,31.50
2022-11-29T23:13:45.598Z,25.75
2022-11-29T23:16:15.468Z,30.70
2022-11-29T23:18:45.749Z,29.48
2022-11-29T23:21:15.879Z,30.40
2022-11-29T23:23:44.844Z,34.25
2022-11-29T23:26:19.352Z,29.02
2022-11-29T23:28:49.585Z,34.05
2022-11-29T23:31:20.774Z,33.75
2022-11-29T23:33:49.405Z,29.35
2022-11-29T23:36:18.962Z,31.83
2022-11-29T23:38:47.147Z,34.97
2022-11-29T23:41:15.604Z,34.90
2022-11-29T23:43:43.872Z,29.00
2022-11-29T23:46:16.505Z,35.72
2022-11-29T23:51:31.051Z,26.45
2022-11-29T23:53:59.274Z,33.63
2022-11-29T23:56:27.440Z,29.35
2022-11-29T23:58:55.803Z,34.83
